Mariposa, CA

1:26 PM PST on December 17, 2014 (GMT -0800)
Madera Municipal | Change Station
CLOSE
Current Station
Airport
Location: Madera,
Elevation: 253 ft
Nearby Weather Stations

Elev 253 ft 36.99 °N, 120.11 °W | Updated 33 minutes ago

Overcast
Overcast
56 °F
Feels Like 56 °F
N
4
Wind Variable Wind from WNW

Today
High -- | Low -- °F
--% Chance of Precip.
Yesterday
High -- | Low -- °F
Precip. -- in
7:08 AM 4:43 PM
Waning Crescent, 19% visible
Pressure 30.08 in
Visibility 10.0 miles
Clouds Scattered Clouds 6500 ft
Dew Point 45 °F
Humidity 67%
Rainfall 0.20 in
Snow Depth Not available.
UV 2 out of 12
Pollen .20 out of 12
Air Quality Not available.
Flu Activity Not available.
METAR KMAE 172053Z AUTO 29003KT 10SM SCT065 13/07 A3008 RMK AO2 SLP185 T01330072 58003

More Conditions Fewer Conditions

Pressure 30.08 in
Visibility 10.0 miles
Clouds Scattered Clouds 6500 ft
Dew Point 45 °F
Humidity 67%
Rainfall 0.20 in
Snow Depth Not available.
UV 2 out of 12
Pollen .20 out of 12
Air Quality Not available.
Flu Activity Not available.
METAR KMAE 172053Z AUTO 29003KT 10SM SCT065 13/07 A3008 RMK AO2 SLP185 T01330072 58003

More Conditions Fewer Conditions

10-Day Weather Forecast

Almanac

Astronomy

Dec. 17, 2014 Rise Set
Actual Time
Civil Twilight
Nautical Twilight
Astronomical Twilight
Moon
Length of Visible Light
Length of Day
Tomorrow will be .
, % of the Moon is Illuminated

Today's Extremes

State Highs State Lows

Community

WunderPhotos

Upload Photos

1,778,806 photos uploaded!

WunderBlogs® & News

Nearby

Air Quality

  Air Quality AQ Index Pollutant
Not available.

Snow Depth

Station Depth Elevation

Earthquake Activity

City Distance Mag. Time & Date
Minimum magnitude displayed is 2.5.

Coastal Water Temperatures

Place Temperature

Nearby Weather Stations